sensor_id;sensor_type;location;lat;lon;timestamp;pressure;altitude;pressure_sealevel;temperature;humidity
53908;BME280;40469;47.998;7.794;2023-02-12T00:01:33;100936.19;;;0.20;100.00
53908;BME280;40469;47.998;7.794;2023-02-12T00:03:58;100937.06;;;0.21;100.00
53908;BME280;40469;47.998;7.794;2023-02-12T00:06:24;100934.50;;;0.21;100.00
53908;BME280;40469;47.998;7.794;2023-02-12T00:08:49;100940.06;;;0.27;100.00
53908;BME280;40469;47.998;7.794;2023-02-12T00:11:16;100946.84;;;0.26;100.00
53908;BME280;40469;47.998;7.794;2023-02-12T00:13:41;100951.63;;;0.20;100.00
53908;BME280;40469;47.998;7.794;2023-02-12T00:16:08;100944.19;;;0.25;100.00
53908;BME280;40469;47.998;7.794;2023-02-12T00:18:33;100943.09;;;0.21;100.00
53908;BME280;40469;47.998;7.794;2023-02-12T00:20:59;100938.16;;;0.24;100.00
53908;BME280;40469;47.998;7.794;2023-02-12T00:23:24;100934.72;;;0.24;100.00
53908;BME280;40469;47.998;7.794;2023-02-12T00:25:50;100942.94;;;0.18;100.00
53908;BME280;40469;47.998;7.794;2023-02-12T00:28:15;100939.38;;;0.16;100.00
53908;BME280;40469;47.998;7.794;2023-02-12T00:30:40;100942.72;;;0.15;100.00
53908;BME280;40469;47.998;7.794;2023-02-12T00:33:05;100938.19;;;0.11;100.00
53908;BME280;40469;47.998;7.794;2023-02-12T00:35:31;100938.75;;;0.07;100.00
53908;BME280;40469;47.998;7.794;2023-02-12T00:37:56;100938.75;;;0.07;100.00
53908;BME280;40469;47.998;7.794;2023-02-12T00:40:21;100942.84;;;-0.10;100.00
53908;BME280;40469;47.998;7.794;2023-02-12T00:42:47;100950.63;;;-0.09;100.00
53908;BME280;40469;47.998;7.794;2023-02-12T00:45:12;100948.44;;;-0.03;100.00
53908;BME280;40469;47.998;7.794;2023-02-12T00:47:37;100955.34;;;-0.15;100.00
53908;BME280;40469;47.998;7.794;2023-02-12T00:50:02;100959.09;;;-0.23;100.00
53908;BME280;40469;47.998;7.794;2023-02-12T00:52:28;100956.53;;;-0.23;100.00
53908;BME280;40469;47.998;7.794;2023-02-12T00:54:53;100957.41;;;-0.36;100.00
53908;BME280;40469;47.998;7.794;2023-02-12T00:57:18;100958.09;;;-0.39;100.00
53908;BME280;40469;47.998;7.794;2023-02-12T00:59:43;100951.41;;;-0.36;100.00
53908;BME280;40469;47.998;7.794;2023-02-12T01:02:08;100952.97;;;-0.39;100.00
53908;BME280;40469;47.998;7.794;2023-02-12T01:04:34;100945.16;;;-0.40;100.00
53908;BME280;40469;47.998;7.794;2023-02-12T01:06:59;100945.66;;;-0.46;100.00
53908;BME280;40469;47.998;7.794;2023-02-12T01:09:24;100949.09;;;-0.45;100.00
53908;BME280;40469;47.998;7.794;2023-02-12T01:11:49;100948.28;;;-0.44;100.00
53908;BME280;40469;47.998;7.794;2023-02-12T01:14:15;100947.47;;;-0.57;100.00
53908;BME280;40469;47.998;7.794;2023-02-12T01:16:40;100944.47;;;-0.51;100.00
53908;BME280;40469;47.998;7.794;2023-02-12T01:19:05;100945.06;;;-0.42;100.00
53908;BME280;40469;47.998;7.794;2023-02-12T01:21:32;100950.09;;;-0.43;100.00
53908;BME280;40469;47.998;7.794;2023-02-12T01:23:58;100947.75;;;-0.40;100.00
53908;BME280;40469;47.998;7.794;2023-02-12T01:26:26;100943.16;;;-0.44;100.00
53908;BME280;40469;47.998;7.794;2023-02-12T01:28:53;100943.09;;;-0.46;100.00
53908;BME280;40469;47.998;7.794;2023-02-12T01:31:20;100948.41;;;-0.43;100.00
53908;BME280;40469;47.998;7.794;2023-02-12T01:33:46;100939.06;;;-0.42;100.00
53908;BME280;40469;47.998;7.794;2023-02-12T01:36:12;100932.34;;;-0.40;100.00
53908;BME280;40469;47.998;7.794;2023-02-12T01:38:37;100929.28;;;-0.34;100.00
53908;BME280;40469;47.998;7.794;2023-02-12T01:41:06;100927.03;;;-0.30;100.00
53908;BME280;40469;47.998;7.794;2023-02-12T01:43:32;100932.06;;;-0.31;100.00
53908;BME280;40469;47.998;7.794;2023-02-12T01:45:58;100933.72;;;-0.32;100.00
53908;BME280;40469;47.998;7.794;2023-02-12T01:48:24;100927.50;;;-0.35;100.00
53908;BME280;40469;47.998;7.794;2023-02-12T01:50:51;100940.03;;;-0.40;100.00
53908;BME280;40469;47.998;7.794;2023-02-12T01:53:17;100941.19;;;-0.48;100.00
53908;BME280;40469;47.998;7.794;2023-02-12T01:55:45;100945.72;;;-0.58;100.00
53908;BME280;40469;47.998;7.794;2023-02-12T01:58:10;100940.16;;;-0.64;100.00
53908;BME280;40469;47.998;7.794;2023-02-12T02:00:35;100936.31;;;-0.70;100.00
53908;BME280;40469;47.998;7.794;2023-02-12T02:03:01;100931.19;;;-0.70;100.00
53908;BME280;40469;47.998;7.794;2023-02-12T02:06:13;100934.31;;;-0.74;100.00
53908;BME280;40469;47.998;7.794;2023-02-12T02:08:12;100933.81;;;-0.82;100.00
53908;BME280;40469;47.998;7.794;2023-02-12T02:10:37;100931.66;;;-1.01;100.00
53908;BME280;40469;47.998;7.794;2023-02-12T02:13:03;100930.56;;;-1.05;100.00
53908;BME280;40469;47.998;7.794;2023-02-12T02:15:47;100927.91;;;-1.06;100.00
53908;BME280;40469;47.998;7.794;2023-02-12T02:18:23;100923.63;;;-1.19;100.00
53908;BME280;40469;47.998;7.794;2023-02-12T02:29:10;100932.03;;;-1.34;100.00
53908;BME280;40469;47.998;7.794;2023-02-12T02:31:43;100949.09;;;-1.34;100.00
53908;BME280;40469;47.998;7.794;2023-02-12T02:34:16;100939.03;;;-1.31;100.00
53908;BME280;40469;47.998;7.794;2023-02-12T02:36:45;100924.88;;;-1.26;100.00
53908;BME280;40469;47.998;7.794;2023-02-12T02:44:27;100930.63;;;-1.17;100.00
53908;BME280;40469;47.998;7.794;2023-02-12T02:46:54;100935.06;;;-1.14;100.00
53908;BME280;40469;47.998;7.794;2023-02-12T02:49:31;100929.84;;;-1.16;100.00
53908;BME280;40469;47.998;7.794;2023-02-12T02:52:02;100931.06;;;-1.10;100.00
53908;BME280;40469;47.998;7.794;2023-02-12T02:54:34;100940.06;;;-1.04;100.00
53908;BME280;40469;47.998;7.794;2023-02-12T02:57:05;100925.94;;;-1.10;100.00
53908;BME280;40469;47.998;7.794;2023-02-12T02:59:33;100936.66;;;-1.16;100.00
53908;BME280;40469;47.998;7.794;2023-02-12T03:02:00;100934.19;;;-1.15;100.00
53908;BME280;40469;47.998;7.794;2023-02-12T03:07:17;100931.31;;;-1.19;100.00
53908;BME280;40469;47.998;7.794;2023-02-12T03:09:49;100927.88;;;-1.20;100.00
53908;BME280;40469;47.998;7.794;2023-02-12T03:12:27;100937.19;;;-1.20;100.00
53908;BME280;40469;47.998;7.794;2023-02-12T03:14:55;100933.78;;;-1.33;100.00
53908;BME280;40469;47.998;7.794;2023-02-12T03:17:24;100928.00;;;-1.30;100.00
53908;BME280;40469;47.998;7.794;2023-02-12T03:19:54;100933.25;;;-1.28;100.00
53908;BME280;40469;47.998;7.794;2023-02-12T03:22:25;100920.44;;;-1.28;100.00
53908;BME280;40469;47.998;7.794;2023-02-12T03:24:56;100926.31;;;-1.29;100.00
53908;BME280;40469;47.998;7.794;2023-02-12T03:27:33;100922.78;;;-1.31;100.00
53908;BME280;40469;47.998;7.794;2023-02-12T03:30:00;100928.38;;;-1.37;100.00
53908;BME280;40469;47.998;7.794;2023-02-12T03:32:32;100920.47;;;-1.40;100.00
53908;BME280;40469;47.998;7.794;2023-02-12T03:37:29;100902.19;;;-1.45;100.00
53908;BME280;40469;47.998;7.794;2023-02-12T03:39:58;100918.47;;;-1.44;100.00
53908;BME280;40469;47.998;7.794;2023-02-12T03:44:56;100919.38;;;-1.56;100.00
53908;BME280;40469;47.998;7.794;2023-02-12T03:47:24;100923.97;;;-1.51;100.00
53908;BME280;40469;47.998;7.794;2023-02-12T03:49:58;100925.06;;;-1.48;100.00
53908;BME280;40469;47.998;7.794;2023-02-12T03:52:27;100924.25;;;-1.47;100.00
53908;BME280;40469;47.998;7.794;2023-02-12T03:54:52;100931.66;;;-1.51;100.00
53908;BME280;40469;47.998;7.794;2023-02-12T03:57:19;100928.84;;;-1.55;100.00
53908;BME280;40469;47.998;7.794;2023-02-12T03:59:45;100925.19;;;-1.58;100.00
53908;BME280;40469;47.998;7.794;2023-02-12T04:02:11;100932.75;;;-1.60;100.00
53908;BME280;40469;47.998;7.794;2023-02-12T04:04:37;100934.63;;;-1.57;100.00
53908;BME280;40469;47.998;7.794;2023-02-12T04:07:03;100931.31;;;-1.56;100.00
53908;BME280;40469;47.998;7.794;2023-02-12T04:09:28;100931.53;;;-1.53;100.00
53908;BME280;40469;47.998;7.794;2023-02-12T04:27:24;100936.69;;;-1.77;100.00
53908;BME280;40469;47.998;7.794;2023-02-12T04:29:51;100940.25;;;-1.75;100.00
53908;BME280;40469;47.998;7.794;2023-02-12T04:35:03;100943.25;;;-1.80;100.00
53908;BME280;40469;47.998;7.794;2023-02-12T04:37:37;100939.69;;;-1.82;100.00
53908;BME280;40469;47.998;7.794;2023-02-12T04:40:07;100939.59;;;-1.84;100.00
53908;BME280;40469;47.998;7.794;2023-02-12T04:42:43;100940.56;;;-1.82;100.00
53908;BME280;40469;47.998;7.794;2023-02-12T04:45:12;100940.56;;;-1.82;100.00
53908;BME280;40469;47.998;7.794;2023-02-12T04:47:38;100938.69;;;-1.84;100.00
53908;BME280;40469;47.998;7.794;2023-02-12T04:50:03;100943.06;;;-1.83;100.00
53908;BME280;40469;47.998;7.794;2023-02-12T04:52:28;100946.50;;;-1.83;100.00
53908;BME280;40469;47.998;7.794;2023-02-12T04:54:54;100950.28;;;-1.78;100.00
53908;BME280;40469;47.998;7.794;2023-02-12T04:57:19;100949.72;;;-1.74;100.00
53908;BME280;40469;47.998;7.794;2023-02-12T04:59:44;100952.50;;;-1.70;100.00
53908;BME280;40469;47.998;7.794;2023-02-12T05:02:09;100940.56;;;-1.70;100.00
53908;BME280;40469;47.998;7.794;2023-02-12T05:04:35;100939.69;;;-1.70;100.00
53908;BME280;40469;47.998;7.794;2023-02-12T05:07:00;100938.81;;;-1.71;100.00
53908;BME280;40469;47.998;7.794;2023-02-12T05:09:25;100927.78;;;-1.70;100.00
53908;BME280;40469;47.998;7.794;2023-02-12T05:11:50;100929.69;;;-1.67;100.00
53908;BME280;40469;47.998;7.794;2023-02-12T05:14:15;100929.09;;;-1.63;100.00
53908;BME280;40469;47.998;7.794;2023-02-12T05:16:41;100925.19;;;-1.58;100.00
53908;BME280;40469;47.998;7.794;2023-02-12T05:19:06;100922.75;;;-1.57;100.00
53908;BME280;40469;47.998;7.794;2023-02-12T05:21:33;100921.94;;;-1.56;100.00
53908;BME280;40469;47.998;7.794;2023-02-12T05:23:59;100926.94;;;-1.57;100.00
53908;BME280;40469;47.998;7.794;2023-02-12T05:26:25;100925.41;;;-1.55;100.00
53908;BME280;40469;47.998;7.794;2023-02-12T05:28:50;100924.63;;;-1.54;100.00
53908;BME280;40469;47.998;7.794;2023-02-12T05:31:16;100922.28;;;-1.51;100.00
53908;BME280;40469;47.998;7.794;2023-02-12T05:33:46;100919.94;;;-1.48;100.00
53908;BME280;40469;47.998;7.794;2023-02-12T05:36:21;100914.94;;;-1.46;100.00
53908;BME280;40469;47.998;7.794;2023-02-12T05:38:47;100923.13;;;-1.39;100.00
53908;BME280;40469;47.998;7.794;2023-02-12T05:41:14;100918.22;;;-1.36;100.00
53908;BME280;40469;47.998;7.794;2023-02-12T05:43:40;100912.31;;;-1.35;100.00
53908;BME280;40469;47.998;7.794;2023-02-12T05:46:05;100910.66;;;-1.34;100.00
53908;BME280;40469;47.998;7.794;2023-02-12T05:48:31;100915.78;;;-1.34;100.00
53908;BME280;40469;47.998;7.794;2023-02-12T05:51:07;100917.31;;;-1.36;100.00
53908;BME280;40469;47.998;7.794;2023-02-12T05:53:32;100918.13;;;-1.37;100.00
53908;BME280;40469;47.998;7.794;2023-02-12T05:56:14;100910.22;;;-1.40;100.00
53908;BME280;40469;47.998;7.794;2023-02-12T05:58:40;100903.75;;;-1.47;100.00
53908;BME280;40469;47.998;7.794;2023-02-12T06:01:13;100914.47;;;-1.53;100.00
53908;BME280;40469;47.998;7.794;2023-02-12T06:03:39;100914.41;;;-1.66;100.00
53908;BME280;40469;47.998;7.794;2023-02-12T06:06:04;100920.97;;;-1.69;100.00
53908;BME280;40469;47.998;7.794;2023-02-12T06:08:30;100917.53;;;-1.70;100.00
53908;BME280;40469;47.998;7.794;2023-02-12T06:10:58;100915.75;;;-1.71;100.00
53908;BME280;40469;47.998;7.794;2023-02-12T06:13:23;100918.00;;;-1.76;100.00
53908;BME280;40469;47.998;7.794;2023-02-12T06:15:49;100921.88;;;-1.81;100.00
53908;BME280;40469;47.998;7.794;2023-02-12T06:18:14;100918.91;;;-1.87;100.00
53908;BME280;40469;47.998;7.794;2023-02-12T06:20:39;100923.81;;;-1.90;100.00
53908;BME280;40469;47.998;7.794;2023-02-12T06:23:04;100930.25;;;-1.95;100.00
53908;BME280;40469;47.998;7.794;2023-02-12T06:25:30;100918.56;;;-2.03;100.00
53908;BME280;40469;47.998;7.794;2023-02-12T06:27:55;100920.00;;;-2.07;100.00
53908;BME280;40469;47.998;7.794;2023-02-12T06:30:20;100918.25;;;-2.08;100.00
53908;BME280;40469;47.998;7.794;2023-02-12T06:32:48;100918.13;;;-2.10;100.00
53908;BME280;40469;47.998;7.794;2023-02-12T06:35:13;100919.72;;;-2.12;100.00
53908;BME280;40469;47.998;7.794;2023-02-12T06:37:38;100925.25;;;-2.17;100.00
53908;BME280;40469;47.998;7.794;2023-02-12T06:40:04;100925.25;;;-2.17;100.00
53908;BME280;40469;47.998;7.794;2023-02-12T06:42:29;100927.81;;;-2.17;100.00
53908;BME280;40469;47.998;7.794;2023-02-12T06:44:54;100917.13;;;-2.23;100.00
53908;BME280;40469;47.998;7.794;2023-02-12T06:47:19;100925.81;;;-2.21;100.00
53908;BME280;40469;47.998;7.794;2023-02-12T06:49:45;100914.00;;;-2.19;100.00
53908;BME280;40469;47.998;7.794;2023-02-12T06:52:10;100920.13;;;-2.17;100.00
53908;BME280;40469;47.998;7.794;2023-02-12T06:54:35;100923.72;;;-2.15;100.00
53908;BME280;40469;47.998;7.794;2023-02-12T06:57:00;100925.59;;;-2.13;100.00
53908;BME280;40469;47.998;7.794;2023-02-12T06:59:26;100930.03;;;-2.10;100.00
53908;BME280;40469;47.998;7.794;2023-02-12T07:01:51;100924.13;;;-2.09;100.00
53908;BME280;40469;47.998;7.794;2023-02-12T07:04:16;100926.06;;;-2.06;100.00
53908;BME280;40469;47.998;7.794;2023-02-12T07:06:41;100931.69;;;-2.11;100.00
53908;BME280;40469;47.998;7.794;2023-02-12T07:09:08;100935.38;;;-2.07;100.00
53908;BME280;40469;47.998;7.794;2023-02-12T07:11:34;100932.34;;;-2.01;100.00
53908;BME280;40469;47.998;7.794;2023-02-12T07:14:00;100934.38;;;-1.97;100.00
53908;BME280;40469;47.998;7.794;2023-02-12T07:16:25;100939.59;;;-2.07;100.00
53908;BME280;40469;47.998;7.794;2023-02-12T07:18:51;100941.84;;;-2.00;100.00
53908;BME280;40469;47.998;7.794;2023-02-12T07:21:16;100932.03;;;-1.94;100.00
53908;BME280;40469;47.998;7.794;2023-02-12T07:23:48;100935.03;;;-1.88;100.00
53908;BME280;40469;47.998;7.794;2023-02-12T07:26:14;100929.47;;;-1.82;100.00
53908;BME280;40469;47.998;7.794;2023-02-12T07:28:39;100935.56;;;-1.80;100.00
53908;BME280;40469;47.998;7.794;2023-02-12T07:31:09;100945.38;;;-1.75;100.00
53908;BME280;40469;47.998;7.794;2023-02-12T07:33:35;100939.75;;;-1.57;100.00
53908;BME280;40469;47.998;7.794;2023-02-12T07:36:01;100938.75;;;-1.47;100.00
53908;BME280;40469;47.998;7.794;2023-02-12T07:38:28;100942.63;;;-1.41;100.00
53908;BME280;40469;47.998;7.794;2023-02-12T07:40:53;100946.53;;;-1.34;100.00
53908;BME280;40469;47.998;7.794;2023-02-12T07:43:21;100947.16;;;-1.25;100.00
53908;BME280;40469;47.998;7.794;2023-02-12T07:45:46;100950.03;;;-1.20;100.00
53908;BME280;40469;47.998;7.794;2023-02-12T07:48:11;100947.00;;;-1.15;100.00
53908;BME280;40469;47.998;7.794;2023-02-12T07:50:37;100949.25;;;-1.19;100.00
53908;BME280;40469;47.998;7.794;2023-02-12T07:53:02;100944.13;;;-1.19;100.00
53908;BME280;40469;47.998;7.794;2023-02-12T07:55:27;100946.66;;;-1.07;100.00
53908;BME280;40469;47.998;7.794;2023-02-12T07:57:52;100953.38;;;-0.96;100.00
53908;BME280;40469;47.998;7.794;2023-02-12T08:00:18;100944.00;;;-0.96;100.00
53908;BME280;40469;47.998;7.794;2023-02-12T08:02:43;100951.00;;;-0.81;100.00
53908;BME280;40469;47.998;7.794;2023-02-12T08:05:08;100948.06;;;-0.74;100.00
53908;BME280;40469;47.998;7.794;2023-02-12T08:07:33;100945.28;;;-0.64;100.00
53908;BME280;40469;47.998;7.794;2023-02-12T08:09:59;100952.47;;;-0.33;100.00
53908;BME280;40469;47.998;7.794;2023-02-12T08:12:24;100953.38;;;-0.06;100.00
53908;BME280;40469;47.998;7.794;2023-02-12T08:14:49;100952.59;;;-0.05;100.00
53908;BME280;40469;47.998;7.794;2023-02-12T08:17:14;100950.72;;;0.20;100.00
53908;BME280;40469;47.998;7.794;2023-02-12T08:19:40;100955.06;;;0.34;100.00
53908;BME280;40469;47.998;7.794;2023-02-12T08:22:05;100957.72;;;0.22;100.00
53908;BME280;40469;47.998;7.794;2023-02-12T08:24:31;100957.94;;;0.25;100.00
53908;BME280;40469;47.998;7.794;2023-02-12T08:26:56;100956.91;;;0.36;100.00
53908;BME280;40469;47.998;7.794;2023-02-12T08:29:23;100961.66;;;0.44;100.00
53908;BME280;40469;47.998;7.794;2023-02-12T08:31:49;100958.66;;;0.64;100.00
53908;BME280;40469;47.998;7.794;2023-02-12T08:34:18;100961.00;;;1.03;100.00
53908;BME280;40469;47.998;7.794;2023-02-12T08:36:44;100959.19;;;1.15;100.00
53908;BME280;40469;47.998;7.794;2023-02-12T08:39:10;100955.66;;;1.43;100.00
53908;BME280;40469;47.998;7.794;2023-02-12T08:41:36;100953.03;;;1.86;100.00
53908;BME280;40469;47.998;7.794;2023-02-12T08:44:03;100955.09;;;2.23;100.00
53908;BME280;40469;47.998;7.794;2023-02-12T08:46:32;100957.00;;;2.42;100.00
53908;BME280;40469;47.998;7.794;2023-02-12T08:49:11;100947.38;;;2.54;100.00
53908;BME280;40469;47.998;7.794;2023-02-12T08:51:37;100940.84;;;2.61;100.00
53908;BME280;40469;47.998;7.794;2023-02-12T08:54:04;100936.69;;;2.79;100.00
53908;BME280;40469;47.998;7.794;2023-02-12T08:56:30;100934.34;;;3.00;100.00
53908;BME280;40469;47.998;7.794;2023-02-12T08:58:56;100931.91;;;3.71;100.00
53908;BME280;40469;47.998;7.794;2023-02-12T09:01:22;100928.38;;;3.87;100.00
53908;BME280;40469;47.998;7.794;2023-02-12T09:03:49;100928.44;;;4.24;100.00
53908;BME280;40469;47.998;7.794;2023-02-12T09:06:14;100922.50;;;4.45;100.00
53908;BME280;40469;47.998;7.794;2023-02-12T09:08:40;100919.41;;;4.91;100.00
53908;BME280;40469;47.998;7.794;2023-02-12T09:11:07;100919.53;;;5.13;100.00
53908;BME280;40469;47.998;7.794;2023-02-12T09:13:33;100916.94;;;5.33;100.00
53908;BME280;40469;47.998;7.794;2023-02-12T09:15:59;100913.00;;;5.43;100.00
53908;BME280;40469;47.998;7.794;2023-02-12T09:18:25;100915.09;;;5.73;100.00
53908;BME280;40469;47.998;7.794;2023-02-12T09:20:50;100903.03;;;6.15;100.00
53908;BME280;40469;47.998;7.794;2023-02-12T09:23:15;100908.56;;;6.70;100.00
53908;BME280;40469;47.998;7.794;2023-02-12T09:25:41;100905.00;;;6.92;100.00
53908;BME280;40469;47.998;7.794;2023-02-12T09:28:07;100904.41;;;7.23;100.00
53908;BME280;40469;47.998;7.794;2023-02-12T09:30:32;100909.94;;;7.08;100.00
53908;BME280;40469;47.998;7.794;2023-02-12T09:32:57;100910.19;;;7.66;100.00
53908;BME280;40469;47.998;7.794;2023-02-12T09:35:23;100906.31;;;7.27;100.00
53908;BME280;40469;47.998;7.794;2023-02-12T09:37:48;100911.00;;;7.39;100.00
53908;BME280;40469;47.998;7.794;2023-02-12T09:40:21;100905.75;;;7.12;100.00
53908;BME280;40469;47.998;7.794;2023-02-12T09:42:59;100899.50;;;7.07;100.00
53908;BME280;40469;47.998;7.794;2023-02-12T09:45:27;100899.31;;;7.77;100.00
53908;BME280;40469;47.998;7.794;2023-02-12T09:47:56;100896.81;;;7.81;100.00
53908;BME280;40469;47.998;7.794;2023-02-12T09:50:29;100905.53;;;7.83;100.00
53908;BME280;40469;47.998;7.794;2023-02-12T09:52:58;100895.88;;;8.33;100.00
53908;BME280;40469;47.998;7.794;2023-02-12T09:55:29;100910.69;;;8.35;100.00
53908;BME280;40469;47.998;7.794;2023-02-12T09:57:55;100902.94;;;8.10;100.00
53908;BME280;40469;47.998;7.794;2023-02-12T10:00:21;100898.91;;;8.20;100.00
53908;BME280;40469;47.998;7.794;2023-02-12T10:02:49;100889.09;;;8.40;100.00
53908;BME280;40469;47.998;7.794;2023-02-12T10:05:16;100895.81;;;8.31;100.00
53908;BME280;40469;47.998;7.794;2023-02-12T10:10:26;100887.25;;;8.64;100.00
53908;BME280;40469;47.998;7.794;2023-02-12T10:13:03;100892.34;;;8.32;100.00
53908;BME280;40469;47.998;7.794;2023-02-12T10:15:34;100892.34;;;8.04;100.00
53908;BME280;40469;47.998;7.794;2023-02-12T10:18:10;100900.63;;;7.92;100.00
53908;BME280;40469;47.998;7.794;2023-02-12T10:26:29;100890.50;;;8.28;100.00
53908;BME280;40469;47.998;7.794;2023-02-12T10:29:00;100897.25;;;8.79;100.00
53908;BME280;40469;47.998;7.794;2023-02-12T10:31:36;100897.63;;;8.63;100.00
53908;BME280;40469;47.998;7.794;2023-02-12T10:34:11;100901.06;;;8.92;100.00
53908;BME280;40469;47.998;7.794;2023-02-12T10:36:43;100899.25;;;8.59;100.00
53908;BME280;40469;47.998;7.794;2023-02-12T10:41:34;100898.44;;;8.60;100.00
53908;BME280;40469;47.998;7.794;2023-02-12T10:44:02;100894.41;;;8.71;100.00
53908;BME280;40469;47.998;7.794;2023-02-12T10:46:29;100893.78;;;8.80;100.00
53908;BME280;40469;47.998;7.794;2023-02-12T10:48:55;100892.09;;;9.13;100.00
53908;BME280;40469;47.998;7.794;2023-02-12T10:51:37;100877.91;;;9.03;100.00
53908;BME280;40469;47.998;7.794;2023-02-12T10:56:49;100876.19;;;9.37;100.00
53908;BME280;40469;47.998;7.794;2023-02-12T10:59:21;100878.06;;;9.41;100.00
53908;BME280;40469;47.998;7.794;2023-02-12T11:01:46;100879.84;;;9.43;100.00
53908;BME280;40469;47.998;7.794;2023-02-12T11:04:31;100877.50;;;9.54;100.00
53908;BME280;40469;47.998;7.794;2023-02-12T11:06:58;100870.66;;;9.58;100.00
53908;BME280;40469;47.998;7.794;2023-02-12T11:09:27;100866.38;;;9.61;100.00
53908;BME280;40469;47.998;7.794;2023-02-12T11:11:53;100857.09;;;9.71;100.00
53908;BME280;40469;47.998;7.794;2023-02-12T11:14:18;100857.13;;;9.38;100.00
53908;BME280;40469;47.998;7.794;2023-02-12T11:16:57;100858.50;;;9.58;100.00
53908;BME280;40469;47.998;7.794;2023-02-12T11:19:33;100853.91;;;9.84;100.00
53908;BME280;40469;47.998;7.794;2023-02-12T11:22:05;100851.66;;;9.63;100.00
53908;BME280;40469;47.998;7.794;2023-02-12T11:24:32;100848.38;;;9.36;100.00
53908;BME280;40469;47.998;7.794;2023-02-12T11:27:10;100844.41;;;9.17;100.00
53908;BME280;40469;47.998;7.794;2023-02-12T11:29:37;100832.59;;;9.66;100.00
53908;BME280;40469;47.998;7.794;2023-02-12T11:32:03;100831.69;;;9.64;100.00
53908;BME280;40469;47.998;7.794;2023-02-12T11:34:29;100832.06;;;9.81;100.00
53908;BME280;40469;47.998;7.794;2023-02-12T11:36:54;100837.69;;;9.98;100.00
53908;BME280;40469;47.998;7.794;2023-02-12T11:39:33;100821.47;;;10.11;100.00
53908;BME280;40469;47.998;7.794;2023-02-12T11:42:19;100821.81;;;9.51;100.00
53908;BME280;40469;47.998;7.794;2023-02-12T11:44:49;100823.06;;;9.66;100.00
53908;BME280;40469;47.998;7.794;2023-02-12T11:47:33;100822.28;;;10.09;100.00
53908;BME280;40469;47.998;7.794;2023-02-12T11:52:46;100812.25;;;10.27;100.00
53908;BME280;40469;47.998;7.794;2023-02-12T11:57:45;100801.69;;;10.22;100.00
53908;BME280;40469;47.998;7.794;2023-02-12T12:00:16;100798.16;;;10.19;100.00
53908;BME280;40469;47.998;7.794;2023-02-12T12:02:54;100804.88;;;10.49;100.00
53908;BME280;40469;47.998;7.794;2023-02-12T12:05:28;100803.19;;;10.10;100.00
53908;BME280;40469;47.998;7.794;2023-02-12T12:07:56;100795.28;;;10.06;100.00
53908;BME280;40469;47.998;7.794;2023-02-12T12:10:34;100794.97;;;9.93;100.00
53908;BME280;40469;47.998;7.794;2023-02-12T12:13:01;100795.84;;;9.93;100.00
53908;BME280;40469;47.998;7.794;2023-02-12T12:15:35;100804.97;;;10.52;100.00
53908;BME280;40469;47.998;7.794;2023-02-12T12:21:39;100795.38;;;10.98;100.00
53908;BME280;40469;47.998;7.794;2023-02-12T12:24:08;100791.84;;;10.96;100.00
53908;BME280;40469;47.998;7.794;2023-02-12T12:26:35;100781.22;;;11.37;100.00
53908;BME280;40469;47.998;7.794;2023-02-12T12:29:14;100779.97;;;11.70;100.00
53908;BME280;40469;47.998;7.794;2023-02-12T12:31:42;100772.44;;;11.33;100.00
53908;BME280;40469;47.998;7.794;2023-02-12T12:34:12;100769.59;;;11.19;100.00
53908;BME280;40469;47.998;7.794;2023-02-12T12:42:23;100772.47;;;11.91;100.00
53908;BME280;40469;47.998;7.794;2023-02-12T12:57:30;100766.09;;;11.20;100.00
53908;BME280;40469;47.998;7.794;2023-02-12T13:07:57;100757.88;;;10.49;100.00
53908;BME280;40469;47.998;7.794;2023-02-12T13:20:37;100738.34;;;10.75;100.00
53908;BME280;40469;47.998;7.794;2023-02-12T13:28:41;100727.88;;;11.27;100.00
53908;BME280;40469;47.998;7.794;2023-02-12T13:31:09;100730.47;;;10.74;100.00
53908;BME280;40469;47.998;7.794;2023-02-12T13:33:45;100734.94;;;10.79;100.00
53908;BME280;40469;47.998;7.794;2023-02-12T13:36:13;100734.44;;;10.52;100.00
53908;BME280;40469;47.998;7.794;2023-02-12T13:41:10;100725.25;;;10.74;100.00
53908;BME280;40469;47.998;7.794;2023-02-12T13:51:42;100713.84;;;10.24;100.00
53908;BME280;40469;47.998;7.794;2023-02-12T13:54:13;100715.19;;;10.05;100.00
53908;BME280;40469;47.998;7.794;2023-02-12T13:56:45;100718.13;;;10.21;100.00
53908;BME280;40469;47.998;7.794;2023-02-12T13:59:56;100714.81;;;10.30;100.00
53908;BME280;40469;47.998;7.794;2023-02-12T14:01:57;100710.88;;;10.49;100.00
53908;BME280;40469;47.998;7.794;2023-02-12T14:04:25;100704.97;;;10.16;100.00
53908;BME280;40469;47.998;7.794;2023-02-12T14:14:38;100695.13;;;9.60;100.00
53908;BME280;40469;47.998;7.794;2023-02-12T14:19:53;100697.63;;;9.56;100.00
53908;BME280;40469;47.998;7.794;2023-02-12T14:24:51;100702.09;;;10.01;100.00
53908;BME280;40469;47.998;7.794;2023-02-12T14:30:19;100686.41;;;10.43;100.00
53908;BME280;40469;47.998;7.794;2023-02-12T14:37:51;100680.25;;;10.92;100.00
53908;BME280;40469;47.998;7.794;2023-02-12T14:43:25;100688.47;;;10.61;100.00
53908;BME280;40469;47.998;7.794;2023-02-12T14:45:51;100682.56;;;10.73;100.00
53908;BME280;40469;47.998;7.794;2023-02-12T14:51:00;100690.16;;;10.59;100.00
53908;BME280;40469;47.998;7.794;2023-02-12T14:53:30;100676.59;;;10.80;100.00
53908;BME280;40469;47.998;7.794;2023-02-12T14:55:57;100681.16;;;10.94;100.00
53908;BME280;40469;47.998;7.794;2023-02-12T14:58:23;100684.88;;;11.07;100.00
53908;BME280;40469;47.998;7.794;2023-02-12T15:00:50;100680.22;;;10.38;100.00
53908;BME280;40469;47.998;7.794;2023-02-12T15:03:17;100688.34;;;10.10;100.00
53908;BME280;40469;47.998;7.794;2023-02-12T15:05:53;100675.75;;;10.33;100.00
53908;BME280;40469;47.998;7.794;2023-02-12T15:13:42;100690.03;;;10.53;100.00